createdAt,value
2019-02-12T00:01:30.308Z,11.26
2019-02-12T00:04:01.415Z,11.21
2019-02-12T00:06:33.031Z,11.47
2019-02-12T00:09:08.705Z,11.21
2019-02-12T00:11:39.611Z,11.46
2019-02-12T00:14:10.927Z,11.34
2019-02-12T00:16:41.972Z,11.47
2019-02-12T00:19:13.131Z,11.57
2019-02-12T00:21:45.287Z,11.31
2019-02-12T00:24:17.641Z,11.58
2019-02-12T00:26:48.820Z,11.46
2019-02-12T00:29:20.703Z,11.45
2019-02-12T00:31:52.630Z,11.58
2019-02-12T00:34:28.265Z,11.69
2019-02-12T00:36:59.612Z,11.55
2019-02-12T00:39:30.402Z,11.56
2019-02-12T00:42:02.875Z,11.62
2019-02-12T00:44:34.228Z,11.72
2019-02-12T00:47:04.786Z,11.57
2019-02-12T00:49:35.424Z,11.54
2019-02-12T00:52:07.320Z,11.10
2019-02-12T00:54:38.945Z,11.22
2019-02-12T00:57:09.404Z,11.29
2019-02-12T00:59:39.643Z,11.45
2019-02-12T01:02:10.893Z,11.52
2019-02-12T01:04:42.735Z,11.55
2019-02-12T01:07:13.386Z,11.59
2019-02-12T01:09:44.444Z,11.53
2019-02-12T01:12:15.047Z,11.55
2019-02-12T01:14:46.740Z,11.53
2019-02-12T01:17:17.375Z,11.36
2019-02-12T01:19:48.797Z,11.35
2019-02-12T01:22:21.578Z,11.16
2019-02-12T01:24:54.235Z,11.26
2019-02-12T01:27:25.781Z,11.35
2019-02-12T01:29:58.524Z,11.37
2019-02-12T01:32:28.714Z,11.19
2019-02-12T01:34:59.484Z,11.18
2019-02-12T01:37:30.958Z,11.11
2019-02-12T01:40:01.475Z,11.28
2019-02-12T01:42:31.824Z,11.35
2019-02-12T01:45:03.931Z,11.32
2019-02-12T01:47:34.643Z,11.46
2019-02-12T01:50:05.994Z,11.59
2019-02-12T01:52:37.062Z,11.59
2019-02-12T01:55:07.983Z,11.43
2019-02-12T01:57:38.969Z,11.35
2019-02-12T02:00:13.396Z,11.45
2019-02-12T02:02:44.946Z,11.30
2019-02-12T02:05:15.771Z,11.08
2019-02-12T02:07:47.856Z,11.16
2019-02-12T02:10:20.519Z,10.93
2019-02-12T02:12:52.265Z,11.07
2019-02-12T02:15:24.601Z,11.00
2019-02-12T02:17:54.770Z,11.16
2019-02-12T02:20:26.060Z,11.06
2019-02-12T02:22:59.528Z,10.86
2019-02-12T02:25:32.286Z,10.86
2019-02-12T02:28:03.989Z,10.78
2019-02-12T02:30:35.648Z,11.14
2019-02-12T02:33:07.255Z,11.05
2019-02-12T02:35:38.869Z,10.93
2019-02-12T02:38:09.044Z,10.81
2019-02-12T02:40:39.271Z,10.76
2019-02-12T02:43:12.142Z,10.74
2019-02-12T02:45:42.883Z,10.92
2019-02-12T02:48:15.302Z,10.99
2019-02-12T02:50:46.928Z,10.26
2019-02-12T02:53:18.385Z,10.23
2019-02-12T02:55:50.206Z,10.37
2019-02-12T02:58:21.410Z,10.41
2019-02-12T03:00:52.554Z,10.61
2019-02-12T03:03:25.970Z,10.76
2019-02-12T03:05:58.061Z,10.99
2019-02-12T03:08:31.173Z,10.93
2019-02-12T03:11:03.313Z,10.84
2019-02-12T03:13:34.414Z,11.06
2019-02-12T03:16:05.983Z,10.94
2019-02-12T03:18:38.932Z,11.01
2019-02-12T03:21:10.394Z,10.98
2019-02-12T03:23:41.959Z,11.05
2019-02-12T03:26:17.114Z,11.10
2019-02-12T03:28:48.641Z,11.10
2019-02-12T03:31:23.483Z,10.45
2019-02-12T03:33:55.325Z,10.86
2019-02-12T03:36:27.890Z,10.60
2019-02-12T03:38:59.251Z,10.67
2019-02-12T03:41:31.214Z,10.90
2019-02-12T03:44:03.485Z,10.82
2019-02-12T03:46:34.135Z,10.90
2019-02-12T03:49:06.440Z,10.86
2019-02-12T03:51:37.063Z,10.14
2019-02-12T03:54:07.286Z,10.43
2019-02-12T03:56:38.252Z,10.48
2019-02-12T03:59:08.867Z,10.27
2019-02-12T04:01:39.561Z,10.61
2019-02-12T04:04:11.241Z,10.45
2019-02-12T04:06:43.250Z,10.26
2019-02-12T04:09:13.877Z,10.31
2019-02-12T04:11:45.881Z,10.39
2019-02-12T04:14:17.929Z,10.46
2019-02-12T04:16:49.235Z,10.67
2019-02-12T04:19:20.754Z,10.46
2019-02-12T04:21:52.025Z,10.36
2019-02-12T04:24:22.668Z,10.31
2019-02-12T04:26:53.772Z,9.94
2019-02-12T04:29:25.121Z,10.35
2019-02-12T04:31:56.492Z,9.85
2019-02-12T04:34:26.715Z,9.93
2019-02-12T04:36:59.158Z,9.86
2019-02-12T04:39:30.137Z,10.12
2019-02-12T04:42:02.423Z,10.18
2019-02-12T04:44:33.416Z,10.38
2019-02-12T04:47:04.104Z,10.06
2019-02-12T04:49:34.639Z,10.20
2019-02-12T04:52:06.388Z,10.41
2019-02-12T04:54:37.804Z,10.56
2019-02-12T04:57:09.155Z,10.45
2019-02-12T04:59:39.664Z,10.50
2019-02-12T05:02:10.868Z,10.56
2019-02-12T05:04:41.021Z,10.69
2019-02-12T05:07:11.195Z,10.74
2019-02-12T05:09:44.747Z,10.82
2019-02-12T05:12:17.668Z,10.84
2019-02-12T05:14:49.419Z,10.91
2019-02-12T05:17:20.119Z,10.88
2019-02-12T05:19:51.059Z,10.93
2019-02-12T05:22:23.562Z,10.90
2019-02-12T05:24:55.815Z,10.66
2019-02-12T05:27:30.663Z,10.61
2019-02-12T05:30:01.993Z,10.68
2019-02-12T05:32:33.361Z,10.72
2019-02-12T05:35:04.356Z,10.73
2019-02-12T05:37:34.631Z,10.74
2019-02-12T05:40:05.613Z,10.74
2019-02-12T05:42:38.618Z,10.72
2019-02-12T05:45:11.974Z,10.78
2019-02-12T05:47:43.497Z,10.69
2019-02-12T05:50:15.222Z,10.70
2019-02-12T05:52:53.655Z,10.65
2019-02-12T05:55:21.061Z,10.76
2019-02-12T05:57:54.167Z,10.45
2019-02-12T06:00:28.047Z,10.57
2019-02-12T06:03:00.256Z,10.59
2019-02-12T06:05:32.046Z,10.58
2019-02-12T06:08:03.482Z,10.43
2019-02-12T06:10:35.795Z,10.66
2019-02-12T06:13:08.603Z,10.71
2019-02-12T06:15:40.117Z,10.59
2019-02-12T06:18:11.979Z,10.73
2019-02-12T06:20:42.552Z,10.72
2019-02-12T06:23:13.963Z,10.39
2019-02-12T06:25:45.768Z,10.58
2019-02-12T06:28:17.623Z,10.42
2019-02-12T06:30:48.132Z,10.20
2019-02-12T06:33:20.332Z,10.10
2019-02-12T06:35:50.910Z,10.46
2019-02-12T06:38:22.172Z,10.51
2019-02-12T06:40:53.756Z,9.90
2019-02-12T06:43:26.583Z,10.31
2019-02-12T06:45:59.426Z,10.59
2019-02-12T06:48:31.019Z,10.23
2019-02-12T06:51:02.160Z,10.38
2019-02-12T06:53:33.234Z,9.90
2019-02-12T06:56:03.403Z,9.64
2019-02-12T06:58:36.322Z,10.04
2019-02-12T07:01:07.663Z,9.92
2019-02-12T07:03:57.013Z,9.81
2019-02-12T07:06:39.222Z,9.75
2019-02-12T07:09:27.068Z,9.98
2019-02-12T07:12:39.818Z,9.48
2019-02-12T07:15:21.832Z,9.49
2019-02-12T07:18:49.226Z,9.85
2019-02-12T07:21:44.259Z,9.94
2019-02-12T07:24:59.616Z,10.14
2019-02-12T07:28:11.784Z,10.41
2019-02-12T07:31:28.165Z,10.51
2019-02-12T07:34:46.578Z,10.34
2019-02-12T07:37:59.987Z,10.36
2019-02-12T07:41:04.096Z,10.17
2019-02-12T07:43:59.113Z,10.09
2019-02-12T07:46:57.462Z,9.60
2019-02-12T07:50:14.668Z,9.04
2019-02-12T07:53:33.726Z,9.61
2019-02-12T07:56:48.227Z,10.33
2019-02-12T07:59:38.256Z,10.67
2019-02-12T08:02:46.089Z,10.91
2019-02-12T08:05:52.065Z,11.08
2019-02-12T08:09:04.107Z,11.23
2019-02-12T08:12:24.638Z,11.24
2019-02-12T08:15:38.482Z,11.34
2019-02-12T08:18:49.923Z,11.53
2019-02-12T08:21:47.949Z,11.61
2019-02-12T08:25:02.493Z,11.54
2019-02-12T08:28:16.183Z,11.60
2019-02-12T08:31:19.481Z,11.58
2019-02-12T08:34:37.716Z,11.52
2019-02-12T08:37:39.161Z,11.82
2019-02-12T08:40:45.258Z,11.95
2019-02-12T08:43:48.845Z,12.01
2019-02-12T08:46:33.097Z,12.11
2019-02-12T08:49:53.113Z,12.20
2019-02-12T08:53:10.293Z,12.05
2019-02-12T08:56:31.267Z,12.16
2019-02-12T08:59:23.781Z,12.08
2019-02-12T09:02:20.746Z,12.12
2019-02-12T09:05:25.159Z,12.32
2019-02-12T09:08:31.015Z,12.16
2019-02-12T09:11:46.293Z,11.84
2019-02-12T09:14:26.612Z,12.11
2019-02-12T09:17:23.708Z,12.25
2019-02-12T09:20:16.968Z,12.20
2019-02-12T09:23:34.229Z,12.34
2019-02-12T09:26:45.974Z,12.38
2019-02-12T09:29:42.672Z,12.53
2019-02-12T09:32:47.796Z,12.36
2019-02-12T09:35:56.998Z,12.50
2019-02-12T09:39:24.068Z,12.67
2019-02-12T09:42:35.981Z,12.66
2019-02-12T09:45:43.065Z,12.70
2019-02-12T09:48:40.420Z,12.24
2019-02-12T09:51:58.244Z,12.46
2019-02-12T09:55:25.038Z,12.50
2019-02-12T09:58:14.798Z,12.58
2019-02-12T10:01:20.945Z,12.40
2019-02-12T10:04:20.814Z,12.47
2019-02-12T10:07:09.271Z,12.36
2019-02-12T10:10:14.709Z,12.38
2019-02-12T10:13:04.362Z,12.68
2019-02-12T10:15:52.921Z,12.96
2019-02-12T10:18:41.872Z,13.07
2019-02-12T10:21:34.034Z,13.16
2019-02-12T10:24:35.288Z,12.98
2019-02-12T10:27:29.270Z,12.95
2019-02-12T10:30:24.868Z,13.23
2019-02-12T10:32:56.211Z,13.35
2019-02-12T10:35:27.342Z,13.21
2019-02-12T10:37:58.471Z,13.55
2019-02-12T10:40:29.067Z,13.63
2019-02-12T10:42:59.445Z,13.61
2019-02-12T10:45:31.323Z,13.80
2019-02-12T10:48:04.728Z,13.86
2019-02-12T10:50:35.711Z,13.95
2019-02-12T10:53:08.970Z,13.89
2019-02-12T10:55:41.027Z,13.63
2019-02-12T10:58:11.226Z,14.00
2019-02-12T11:00:43.331Z,13.65
2019-02-12T11:03:15.453Z,14.27
2019-02-12T11:05:46.942Z,14.25
2019-02-12T11:08:17.979Z,14.44
2019-02-12T11:10:49.059Z,13.88
2019-02-12T11:13:19.567Z,14.24
2019-02-12T11:15:51.137Z,13.56
2019-02-12T11:18:21.330Z,13.75
2019-02-12T11:20:51.798Z,13.84
2019-02-12T11:23:23.321Z,14.23
2019-02-12T11:25:53.980Z,14.08
2019-02-12T11:28:25.459Z,14.34
2019-02-12T11:30:56.502Z,14.30
2019-02-12T11:33:28.760Z,14.24
2019-02-12T11:36:00.428Z,14.53
2019-02-12T11:38:31.071Z,13.79
2019-02-12T11:41:01.593Z,14.52
2019-02-12T11:43:31.844Z,14.17
2019-02-12T11:46:03.861Z,14.30
2019-02-12T11:48:36.958Z,14.50
2019-02-12T11:51:07.169Z,14.68
2019-02-12T11:53:38.609Z,14.54
2019-02-12T11:56:09.257Z,14.70
2019-02-12T11:58:39.750Z,14.35
2019-02-12T12:01:14.690Z,13.60
2019-02-12T12:03:45.800Z,14.09
2019-02-12T12:06:18.441Z,14.54
2019-02-12T12:08:48.823Z,14.66
2019-02-12T12:11:20.293Z,14.98
2019-02-12T12:13:50.894Z,14.57
2019-02-12T12:16:22.231Z,13.80
2019-02-12T12:18:53.217Z,13.95
2019-02-12T12:21:24.176Z,14.13
2019-02-12T12:23:57.258Z,13.63
2019-02-12T12:26:27.863Z,13.68
2019-02-12T12:28:59.423Z,14.02
2019-02-12T12:31:29.598Z,14.00
2019-02-12T12:34:00.474Z,13.51
2019-02-12T12:36:35.759Z,13.80
2019-02-12T12:39:08.665Z,13.82
2019-02-12T12:41:42.814Z,13.85
2019-02-12T12:44:17.210Z,14.41
2019-02-12T12:46:48.619Z,13.72
2019-02-12T12:49:18.906Z,14.36
2019-02-12T12:51:50.067Z,13.54
2019-02-12T12:54:23.543Z,13.54
2019-02-12T12:56:56.430Z,13.71
2019-02-12T12:59:27.545Z,14.32
2019-02-12T13:01:58.871Z,14.36
2019-02-12T13:04:29.835Z,14.24
2019-02-12T13:06:59.871Z,14.74
2019-02-12T13:09:31.801Z,14.96
2019-02-12T13:12:04.171Z,15.90
2019-02-12T13:14:34.410Z,15.80
2019-02-12T13:17:04.591Z,16.04
2019-02-12T13:19:35.182Z,15.27
2019-02-12T13:22:05.486Z,15.78
2019-02-12T13:24:37.363Z,15.29
2019-02-12T13:27:08.002Z,15.77
2019-02-12T13:29:38.270Z,15.84
2019-02-12T13:32:08.523Z,15.95
2019-02-12T13:34:38.774Z,16.08
2019-02-12T13:37:14.047Z,15.80
2019-02-12T13:39:46.100Z,16.24
2019-02-12T13:42:19.444Z,16.62
2019-02-12T13:44:51.168Z,16.74
2019-02-12T13:47:23.275Z,16.74
2019-02-12T13:49:54.381Z,16.07
2019-02-12T13:52:25.025Z,15.83
2019-02-12T13:54:57.049Z,15.66
2019-02-12T13:57:28.530Z,15.31
2019-02-12T13:59:59.574Z,15.11
2019-02-12T14:02:30.822Z,15.45
2019-02-12T14:05:01.547Z,15.37
2019-02-12T14:07:33.051Z,15.66
2019-02-12T14:10:05.925Z,15.48
2019-02-12T14:12:37.892Z,15.21
2019-02-12T14:15:10.391Z,15.76
2019-02-12T14:17:41.161Z,15.76
2019-02-12T14:20:13.770Z,16.07
2019-02-12T14:22:44.052Z,16.09
2019-02-12T14:25:14.751Z,15.62
2019-02-12T14:27:47.242Z,15.95
2019-02-12T14:30:18.249Z,16.20
2019-02-12T14:32:51.460Z,16.10
2019-02-12T14:35:22.111Z,15.96
2019-02-12T14:37:53.463Z,15.31
2019-02-12T14:40:24.088Z,15.28
2019-02-12T14:42:55.657Z,14.82
2019-02-12T14:45:26.554Z,15.09
2019-02-12T14:47:58.502Z,14.80
2019-02-12T14:50:30.084Z,14.25
2019-02-12T14:53:00.750Z,14.42
2019-02-12T14:55:34.116Z,14.47
2019-02-12T14:58:06.885Z,14.40
2019-02-12T15:00:37.569Z,14.37
2019-02-12T15:03:07.876Z,15.07
2019-02-12T15:05:39.588Z,14.53
2019-02-12T15:08:12.317Z,15.01
2019-02-12T15:10:43.793Z,14.33
2019-02-12T15:13:15.532Z,15.03
2019-02-12T15:15:46.872Z,14.76
2019-02-12T15:18:19.663Z,14.49
2019-02-12T15:20:50.161Z,14.47
2019-02-12T15:23:20.670Z,14.66
2019-02-12T15:25:53.187Z,14.74
2019-02-12T15:28:25.081Z,14.00
2019-02-12T15:30:56.628Z,14.51
2019-02-12T15:33:28.351Z,14.64
2019-02-12T15:35:59.707Z,14.35
2019-02-12T15:38:31.306Z,14.39
2019-02-12T15:41:01.857Z,14.32
2019-02-12T15:43:34.480Z,14.37
2019-02-12T15:46:05.431Z,14.50
2019-02-12T15:48:37.756Z,14.48
2019-02-12T15:51:09.184Z,14.84
2019-02-12T15:53:41.810Z,15.08
2019-02-12T15:56:13.698Z,14.91
2019-02-12T15:58:49.271Z,15.04
2019-02-12T16:01:20.650Z,13.87
2019-02-12T16:03:53.306Z,13.95
2019-02-12T16:06:25.142Z,13.61
2019-02-12T16:08:56.309Z,13.48
2019-02-12T16:11:39.878Z,13.49
2019-02-12T16:14:13.636Z,13.84
2019-02-12T16:16:45.290Z,12.96
2019-02-12T16:19:17.182Z,13.09
2019-02-12T16:21:50.779Z,13.33
2019-02-12T16:24:22.725Z,12.99
2019-02-12T16:26:55.944Z,12.72
2019-02-12T16:29:30.095Z,12.25
2019-02-12T16:32:02.013Z,12.98
2019-02-12T16:34:34.183Z,12.98
2019-02-12T16:37:09.139Z,13.23
2019-02-12T16:39:41.962Z,12.91
2019-02-12T16:42:13.011Z,13.56
2019-02-12T16:44:45.446Z,13.89
2019-02-12T16:47:17.133Z,13.71
2019-02-12T16:49:49.733Z,13.25
2019-02-12T16:52:21.272Z,13.05
2019-02-12T16:54:52.684Z,13.29
2019-02-12T16:57:24.800Z,13.85
2019-02-12T16:59:59.404Z,13.74
2019-02-12T17:02:32.570Z,13.85
2019-02-12T17:05:06.117Z,14.08
2019-02-12T17:07:39.108Z,13.60
2019-02-12T17:10:11.102Z,13.87
2019-02-12T17:12:42.829Z,13.45
2019-02-12T17:15:15.823Z,13.31
2019-02-12T17:17:47.416Z,13.48
2019-02-12T17:20:19.930Z,13.43
2019-02-12T17:22:52.054Z,13.48
2019-02-12T17:25:24.042Z,13.14
2019-02-12T17:27:57.187Z,13.10
2019-02-12T17:30:29.196Z,13.02
2019-02-12T17:33:01.248Z,12.75
2019-02-12T17:35:34.277Z,12.80
2019-02-12T17:38:04.475Z,13.05
2019-02-12T17:40:39.009Z,13.25
2019-02-12T17:43:10.143Z,13.38
2019-02-12T17:45:42.729Z,12.78
2019-02-12T17:48:15.946Z,13.13
2019-02-12T17:50:48.962Z,13.44
2019-02-12T17:53:20.288Z,13.15
2019-02-12T17:55:51.517Z,13.29
2019-02-12T17:58:25.356Z,13.26
2019-02-12T18:00:58.042Z,12.95
2019-02-12T18:03:30.698Z,13.39
2019-02-12T18:06:01.651Z,13.19
2019-02-12T18:08:31.913Z,13.34
2019-02-12T18:11:02.686Z,13.00
2019-02-12T18:13:32.899Z,12.68
2019-02-12T18:16:05.813Z,13.21
2019-02-12T18:18:36.730Z,13.57
2019-02-12T18:21:08.583Z,12.86
2019-02-12T18:23:44.271Z,13.00
2019-02-12T18:26:17.541Z,13.12
2019-02-12T18:28:49.133Z,13.13
2019-02-12T18:31:21.605Z,13.34
2019-02-12T18:33:53.233Z,13.65
2019-02-12T18:36:24.219Z,13.29
2019-02-12T18:38:55.637Z,12.96
2019-02-12T18:41:27.345Z,13.08
2019-02-12T18:43:58.853Z,13.22
2019-02-12T18:46:31.552Z,12.57
2019-02-12T18:49:01.731Z,12.72
2019-02-12T18:51:33.504Z,12.89
2019-02-12T18:54:03.669Z,13.01
2019-02-12T18:56:41.434Z,12.55
2019-02-12T18:59:06.720Z,11.94
2019-02-12T19:01:39.289Z,11.88
2019-02-12T19:04:09.916Z,12.64
2019-02-12T19:06:41.615Z,12.94
2019-02-12T19:09:14.122Z,12.68
2019-02-12T19:11:53.953Z,13.09
2019-02-12T19:14:17.133Z,13.22
2019-02-12T19:16:50.577Z,13.10
2019-02-12T19:19:20.801Z,13.31
2019-02-12T19:21:51.663Z,13.38
2019-02-12T19:24:22.317Z,13.20
2019-02-12T19:26:53.381Z,13.54
2019-02-12T19:29:24.838Z,13.65
2019-02-12T19:31:59.495Z,13.69
2019-02-12T19:34:30.958Z,13.65
2019-02-12T19:37:02.275Z,12.78
2019-02-12T19:39:32.971Z,12.96
2019-02-12T19:42:04.481Z,13.07
2019-02-12T19:44:36.287Z,12.92
2019-02-12T19:47:10.825Z,13.07
2019-02-12T19:49:43.575Z,12.56
2019-02-12T19:52:15.253Z,12.98
2019-02-12T19:54:46.253Z,12.36
2019-02-12T19:57:17.447Z,12.58
2019-02-12T19:59:50.433Z,12.50
2019-02-12T20:02:21.970Z,12.65
2019-02-12T20:04:53.156Z,11.71
2019-02-12T20:07:25.199Z,11.93
2019-02-12T20:09:55.913Z,12.61
2019-02-12T20:12:27.167Z,12.13
2019-02-12T20:14:57.988Z,12.49
2019-02-12T20:17:30.601Z,12.37
2019-02-12T20:20:01.118Z,12.26
2019-02-12T20:22:32.154Z,12.04
2019-02-12T20:25:02.394Z,11.69
2019-02-12T20:27:35.992Z,12.07
2019-02-12T20:30:08.435Z,12.06
2019-02-12T20:32:40.449Z,12.25
2019-02-12T20:35:13.351Z,11.77
2019-02-12T20:37:45.398Z,11.75
2019-02-12T20:40:16.226Z,12.33
2019-02-12T20:42:49.274Z,12.04
2019-02-12T20:45:22.190Z,11.99
2019-02-12T20:47:55.135Z,12.34
2019-02-12T20:50:26.445Z,12.59
2019-02-12T20:52:57.089Z,12.69
2019-02-12T20:55:28.855Z,12.77
2019-02-12T20:58:01.544Z,12.74
2019-02-12T21:00:35.653Z,12.60
2019-02-12T21:03:08.846Z,12.74
2019-02-12T21:05:39.390Z,12.54
2019-02-12T21:08:10.351Z,12.73
2019-02-12T21:10:40.624Z,12.82
2019-02-12T21:13:10.841Z,12.85
2019-02-12T21:15:42.520Z,12.73
2019-02-12T21:18:14.891Z,12.71
2019-02-12T21:20:45.133Z,12.51
2019-02-12T21:23:16.813Z,12.50
2019-02-12T21:25:48.616Z,12.39
2019-02-12T21:28:19.808Z,12.32
2019-02-12T21:30:50.715Z,12.35
2019-02-12T21:33:22.645Z,12.41
2019-02-12T21:35:53.167Z,12.42
2019-02-12T21:38:23.912Z,12.16
2019-02-12T21:40:54.093Z,12.45
2019-02-12T21:43:24.769Z,12.39
2019-02-12T21:45:54.970Z,12.66
2019-02-12T21:48:27.019Z,12.42
2019-02-12T21:50:58.646Z,11.92
2019-02-12T21:53:29.237Z,11.79
2019-02-12T21:55:59.782Z,11.99
2019-02-12T21:58:31.459Z,11.90
2019-02-12T22:01:03.754Z,12.22
2019-02-12T22:03:35.389Z,12.05
2019-02-12T22:06:09.262Z,11.76
2019-02-12T22:08:41.292Z,11.19
2019-02-12T22:11:11.598Z,11.73
2019-02-12T22:13:43.471Z,11.18
2019-02-12T22:16:16.666Z,11.31
2019-02-12T22:18:48.438Z,11.75
2019-02-12T22:21:18.620Z,11.79
2019-02-12T22:23:48.849Z,11.87
2019-02-12T22:26:19.406Z,11.92
2019-02-12T22:28:51.240Z,12.09
2019-02-12T22:31:22.120Z,12.10
2019-02-12T22:33:53.620Z,12.32
2019-02-12T22:36:24.779Z,12.37
2019-02-12T22:38:55.478Z,12.17
2019-02-12T22:41:26.769Z,12.15
2019-02-12T22:43:58.640Z,12.38
2019-02-12T22:46:29.356Z,12.13
2019-02-12T22:49:01.144Z,12.35
2019-02-12T22:51:31.776Z,12.34
2019-02-12T22:54:02.428Z,12.16
2019-02-12T22:56:32.610Z,12.30
2019-02-12T22:59:04.091Z,12.21
2019-02-12T23:01:38.184Z,12.40
2019-02-12T23:04:10.549Z,12.38
2019-02-12T23:06:42.515Z,11.86
2019-02-12T23:09:18.441Z,12.22
2019-02-12T23:11:49.852Z,12.14
2019-02-12T23:14:20.512Z,12.35
2019-02-12T23:16:52.272Z,12.33
2019-02-12T23:19:23.909Z,12.34
2019-02-12T23:21:54.848Z,12.15
2019-02-12T23:24:25.973Z,12.05
2019-02-12T23:26:57.613Z,12.21
2019-02-12T23:29:29.637Z,12.07
2019-02-12T23:32:00.969Z,12.15
2019-02-12T23:34:33.852Z,12.15
2019-02-12T23:37:05.173Z,12.23
2019-02-12T23:39:36.654Z,12.25
2019-02-12T23:42:07.291Z,12.25
2019-02-12T23:44:37.924Z,12.21
2019-02-12T23:47:08.131Z,12.22
2019-02-12T23:49:41.105Z,12.09
2019-02-12T23:52:12.093Z,11.96
2019-02-12T23:54:44.528Z,11.83
2019-02-12T23:57:15.147Z,11.83
2019-02-12T23:59:46.703Z,11.48
